sensor_id;sensor_type;location;lat;lon;timestamp;P1;durP1;ratioP1;P2;durP2;ratioP2
5704;SDS011;2877;48.238;11.160;2024-03-23T00:55:51;2.10;;;1.83;;
5704;SDS011;2877;48.238;11.160;2024-03-23T00:58:16;2.40;;;2.20;;
5704;SDS011;2877;48.238;11.160;2024-03-23T01:00:42;2.10;;;1.90;;
5704;SDS011;2877;48.238;11.160;2024-03-23T01:03:07;2.97;;;2.20;;
5704;SDS011;2877;48.238;11.160;2024-03-23T01:05:33;2.40;;;2.30;;
5704;SDS011;2877;48.238;11.160;2024-03-23T01:07:58;1.73;;;1.63;;
5704;SDS011;2877;48.238;11.160;2024-03-23T01:10:24;2.67;;;2.30;;
5704;SDS011;2877;48.238;11.160;2024-03-23T01:12:49;2.70;;;2.07;;
5704;SDS011;2877;48.238;11.160;2024-03-23T01:15:15;1.97;;;1.87;;
5704;SDS011;2877;48.238;11.160;2024-03-23T01:17:40;2.47;;;2.27;;
5704;SDS011;2877;48.238;11.160;2024-03-23T01:20:06;2.30;;;2.10;;
5704;SDS011;2877;48.238;11.160;2024-03-23T01:22:32;2.20;;;2.00;;
5704;SDS011;2877;48.238;11.160;2024-03-23T01:24:58;2.23;;;2.03;;
5704;SDS011;2877;48.238;11.160;2024-03-23T01:27:23;3.87;;;2.30;;
5704;SDS011;2877;48.238;11.160;2024-03-23T01:29:49;6.57;;;2.10;;
5704;SDS011;2877;48.238;11.160;2024-03-23T01:32:15;3.67;;;2.20;;
5704;SDS011;2877;48.238;11.160;2024-03-23T01:34:41;1.97;;;1.70;;
5704;SDS011;2877;48.238;11.160;2024-03-23T01:37:06;2.03;;;1.90;;
5704;SDS011;2877;48.238;11.160;2024-03-23T01:39:32;1.93;;;1.77;;
5704;SDS011;2877;48.238;11.160;2024-03-23T01:41:58;5.30;;;2.00;;
5704;SDS011;2877;48.238;11.160;2024-03-23T01:44:23;3.17;;;1.93;;
5704;SDS011;2877;48.238;11.160;2024-03-23T01:46:49;2.10;;;1.73;;
5704;SDS011;2877;48.238;11.160;2024-03-23T01:49:14;2.13;;;2.03;;
5704;SDS011;2877;48.238;11.160;2024-03-23T01:51:41;2.30;;;1.80;;
5704;SDS011;2877;48.238;11.160;2024-03-23T01:54:07;2.07;;;1.70;;
5704;SDS011;2877;48.238;11.160;2024-03-23T01:56:33;2.10;;;2.00;;
5704;SDS011;2877;48.238;11.160;2024-03-23T01:59:02;2.70;;;1.63;;
5704;SDS011;2877;48.238;11.160;2024-03-23T02:01:28;2.50;;;1.60;;
5704;SDS011;2877;48.238;11.160;2024-03-23T02:03:54;2.23;;;2.03;;
5704;SDS011;2877;48.238;11.160;2024-03-23T02:06:19;1.53;;;1.43;;
5704;SDS011;2877;48.238;11.160;2024-03-23T02:08:45;2.07;;;1.90;;
5704;SDS011;2877;48.238;11.160;2024-03-23T02:11:11;2.10;;;1.90;;
5704;SDS011;2877;48.238;11.160;2024-03-23T02:13:36;3.80;;;2.63;;
5704;SDS011;2877;48.238;11.160;2024-03-23T02:16:02;3.03;;;2.27;;
5704;SDS011;2877;48.238;11.160;2024-03-23T02:18:28;2.50;;;2.30;;
5704;SDS011;2877;48.238;11.160;2024-03-23T02:20:53;2.33;;;2.17;;
5704;SDS011;2877;48.238;11.160;2024-03-23T02:23:19;3.10;;;2.20;;
5704;SDS011;2877;48.238;11.160;2024-03-23T02:25:45;2.40;;;2.20;;
5704;SDS011;2877;48.238;11.160;2024-03-23T02:28:10;5.53;;;2.33;;
5704;SDS011;2877;48.238;11.160;2024-03-23T02:30:37;3.13;;;2.10;;
5704;SDS011;2877;48.238;11.160;2024-03-23T02:33:02;2.83;;;2.10;;
5704;SDS011;2877;48.238;11.160;2024-03-23T02:35:29;2.90;;;2.60;;
5704;SDS011;2877;48.238;11.160;2024-03-23T02:37:55;2.60;;;2.40;;
5704;SDS011;2877;48.238;11.160;2024-03-23T02:40:22;2.57;;;2.23;;
5704;SDS011;2877;48.238;11.160;2024-03-23T02:42:48;2.20;;;2.00;;
5704;SDS011;2877;48.238;11.160;2024-03-23T02:45:14;2.33;;;2.23;;
5704;SDS011;2877;48.238;11.160;2024-03-23T02:47:39;4.27;;;2.50;;
5704;SDS011;2877;48.238;11.160;2024-03-23T02:50:05;2.73;;;2.20;;
5704;SDS011;2877;48.238;11.160;2024-03-23T02:52:31;2.30;;;2.10;;
5704;SDS011;2877;48.238;11.160;2024-03-23T02:54:56;2.80;;;2.20;;
5704;SDS011;2877;48.238;11.160;2024-03-23T02:57:22;2.50;;;2.30;;
5704;SDS011;2877;48.238;11.160;2024-03-23T02:59:48;4.67;;;2.50;;
5704;SDS011;2877;48.238;11.160;2024-03-23T03:02:14;2.40;;;2.20;;
5704;SDS011;2877;48.238;11.160;2024-03-23T03:04:41;3.30;;;2.27;;
5704;SDS011;2877;48.238;11.160;2024-03-23T03:07:06;2.10;;;1.90;;
5704;SDS011;2877;48.238;11.160;2024-03-23T03:09:32;7.63;;;2.00;;
5704;SDS011;2877;48.238;11.160;2024-03-23T03:12:00;2.50;;;2.17;;
5704;SDS011;2877;48.238;11.160;2024-03-23T03:14:27;2.20;;;2.00;;
5704;SDS011;2877;48.238;11.160;2024-03-23T03:16:53;4.73;;;2.30;;
5704;SDS011;2877;48.238;11.160;2024-03-23T03:19:18;2.50;;;2.07;;
5704;SDS011;2877;48.238;11.160;2024-03-23T03:21:44;2.10;;;1.83;;
5704;SDS011;2877;48.238;11.160;2024-03-23T03:24:10;1.90;;;1.73;;
5704;SDS011;2877;48.238;11.160;2024-03-23T03:26:35;2.17;;;1.80;;
5704;SDS011;2877;48.238;11.160;2024-03-23T03:29:02;9.80;;;2.30;;
5704;SDS011;2877;48.238;11.160;2024-03-23T03:31:27;2.10;;;2.00;;
5704;SDS011;2877;48.238;11.160;2024-03-23T03:33:53;2.53;;;2.33;;
5704;SDS011;2877;48.238;11.160;2024-03-23T03:36:18;2.20;;;2.10;;
5704;SDS011;2877;48.238;11.160;2024-03-23T03:38:45;2.53;;;2.20;;
5704;SDS011;2877;48.238;11.160;2024-03-23T03:41:10;2.70;;;2.07;;
5704;SDS011;2877;48.238;11.160;2024-03-23T03:43:36;2.60;;;1.83;;
5704;SDS011;2877;48.238;11.160;2024-03-23T03:46:01;2.20;;;2.00;;
5704;SDS011;2877;48.238;11.160;2024-03-23T03:48:28;3.10;;;2.10;;
5704;SDS011;2877;48.238;11.160;2024-03-23T03:50:53;1.97;;;1.87;;
5704;SDS011;2877;48.238;11.160;2024-03-23T03:53:19;3.40;;;2.17;;
5704;SDS011;2877;48.238;11.160;2024-03-23T03:55:45;2.23;;;2.03;;
5704;SDS011;2877;48.238;11.160;2024-03-23T03:58:10;4.13;;;2.00;;
5704;SDS011;2877;48.238;11.160;2024-03-23T04:00:36;5.13;;;2.07;;
5704;SDS011;2877;48.238;11.160;2024-03-23T04:03:02;2.20;;;2.00;;
5704;SDS011;2877;48.238;11.160;2024-03-23T04:05:28;2.23;;;1.93;;
5704;SDS011;2877;48.238;11.160;2024-03-23T04:07:53;1.90;;;1.80;;
5704;SDS011;2877;48.238;11.160;2024-03-23T04:10:19;2.67;;;1.90;;
5704;SDS011;2877;48.238;11.160;2024-03-23T04:12:46;1.60;;;1.50;;
5704;SDS011;2877;48.238;11.160;2024-03-23T04:15:12;2.13;;;1.93;;
5704;SDS011;2877;48.238;11.160;2024-03-23T04:17:38;2.67;;;1.87;;
5704;SDS011;2877;48.238;11.160;2024-03-23T04:20:04;2.63;;;1.47;;
5704;SDS011;2877;48.238;11.160;2024-03-23T04:22:34;1.70;;;1.60;;
5704;SDS011;2877;48.238;11.160;2024-03-23T04:25:00;1.60;;;1.50;;
5704;SDS011;2877;48.238;11.160;2024-03-23T04:27:28;2.17;;;1.90;;
5704;SDS011;2877;48.238;11.160;2024-03-23T04:29:54;1.80;;;1.70;;
5704;SDS011;2877;48.238;11.160;2024-03-23T04:32:19;7.20;;;2.00;;
5704;SDS011;2877;48.238;11.160;2024-03-23T04:34:45;1.80;;;1.70;;
5704;SDS011;2877;48.238;11.160;2024-03-23T04:37:10;1.70;;;1.60;;
5704;SDS011;2877;48.238;11.160;2024-03-23T04:39:36;3.90;;;2.33;;
5704;SDS011;2877;48.238;11.160;2024-03-23T04:42:03;2.93;;;1.60;;
5704;SDS011;2877;48.238;11.160;2024-03-23T04:44:29;1.97;;;1.77;;
5704;SDS011;2877;48.238;11.160;2024-03-23T04:46:55;3.30;;;1.90;;
5704;SDS011;2877;48.238;11.160;2024-03-23T04:49:21;2.57;;;1.97;;
5704;SDS011;2877;48.238;11.160;2024-03-23T04:51:47;3.40;;;1.63;;
5704;SDS011;2877;48.238;11.160;2024-03-23T04:54:12;2.77;;;1.83;;
5704;SDS011;2877;48.238;11.160;2024-03-23T04:56:38;1.70;;;1.60;;
5704;SDS011;2877;48.238;11.160;2024-03-23T04:59:03;1.70;;;1.60;;
5704;SDS011;2877;48.238;11.160;2024-03-23T05:01:30;1.60;;;1.50;;
5704;SDS011;2877;48.238;11.160;2024-03-23T05:03:56;1.70;;;1.60;;
5704;SDS011;2877;48.238;11.160;2024-03-23T05:06:22;1.37;;;1.30;;
5704;SDS011;2877;48.238;11.160;2024-03-23T05:08:48;1.73;;;1.60;;
5704;SDS011;2877;48.238;11.160;2024-03-23T05:11:14;1.67;;;1.50;;
5704;SDS011;2877;48.238;11.160;2024-03-23T05:13:40;1.80;;;1.27;;
5704;SDS011;2877;48.238;11.160;2024-03-23T05:16:06;1.87;;;1.40;;
5704;SDS011;2877;48.238;11.160;2024-03-23T05:18:32;1.73;;;1.40;;
5704;SDS011;2877;48.238;11.160;2024-03-23T05:20:57;2.00;;;1.70;;
5704;SDS011;2877;48.238;11.160;2024-03-23T05:23:28;1.40;;;1.30;;
5704;SDS011;2877;48.238;11.160;2024-03-23T05:25:54;1.60;;;1.50;;
5704;SDS011;2877;48.238;11.160;2024-03-23T05:28:20;6.10;;;1.60;;
5704;SDS011;2877;48.238;11.160;2024-03-23T05:30:50;3.80;;;1.30;;
5704;SDS011;2877;48.238;11.160;2024-03-23T05:33:16;1.50;;;1.40;;
5704;SDS011;2877;48.238;11.160;2024-03-23T05:35:43;4.13;;;1.23;;
5704;SDS011;2877;48.238;11.160;2024-03-23T05:38:08;2.13;;;1.40;;
5704;SDS011;2877;48.238;11.160;2024-03-23T05:40:34;1.43;;;1.33;;
5704;SDS011;2877;48.238;11.160;2024-03-23T05:43:02;1.57;;;1.47;;
5704;SDS011;2877;48.238;11.160;2024-03-23T05:45:28;3.33;;;1.23;;
5704;SDS011;2877;48.238;11.160;2024-03-23T05:47:54;1.93;;;1.50;;
5704;SDS011;2877;48.238;11.160;2024-03-23T05:50:21;1.53;;;1.43;;
5704;SDS011;2877;48.238;11.160;2024-03-23T05:52:47;2.87;;;1.30;;
5704;SDS011;2877;48.238;11.160;2024-03-23T05:55:13;1.37;;;1.27;;
5704;SDS011;2877;48.238;11.160;2024-03-23T05:57:39;1.43;;;1.33;;
5704;SDS011;2877;48.238;11.160;2024-03-23T06:00:05;5.83;;;1.40;;
5704;SDS011;2877;48.238;11.160;2024-03-23T06:02:35;1.50;;;1.40;;
5704;SDS011;2877;48.238;11.160;2024-03-23T06:05:01;3.17;;;1.20;;
5704;SDS011;2877;48.238;11.160;2024-03-23T06:07:27;1.57;;;1.47;;
5704;SDS011;2877;48.238;11.160;2024-03-23T06:09:53;1.60;;;1.50;;
5704;SDS011;2877;48.238;11.160;2024-03-23T06:12:18;2.10;;;1.40;;
5704;SDS011;2877;48.238;11.160;2024-03-23T06:14:46;1.50;;;1.40;;
5704;SDS011;2877;48.238;11.160;2024-03-23T06:17:13;1.90;;;1.40;;
5704;SDS011;2877;48.238;11.160;2024-03-23T06:19:39;1.63;;;1.53;;
5704;SDS011;2877;48.238;11.160;2024-03-23T06:22:04;5.80;;;1.20;;
5704;SDS011;2877;48.238;11.160;2024-03-23T06:24:31;1.70;;;1.60;;
5704;SDS011;2877;48.238;11.160;2024-03-23T06:26:57;2.97;;;1.60;;
5704;SDS011;2877;48.238;11.160;2024-03-23T06:29:22;3.17;;;1.20;;
5704;SDS011;2877;48.238;11.160;2024-03-23T06:31:52;6.93;;;1.23;;
5704;SDS011;2877;48.238;11.160;2024-03-23T06:34:19;1.47;;;1.37;;
5704;SDS011;2877;48.238;11.160;2024-03-23T06:36:46;2.50;;;1.30;;
5704;SDS011;2877;48.238;11.160;2024-03-23T06:39:12;1.30;;;1.20;;
5704;SDS011;2877;48.238;11.160;2024-03-23T06:41:40;1.30;;;1.20;;
5704;SDS011;2877;48.238;11.160;2024-03-23T06:44:16;1.37;;;1.20;;
5704;SDS011;2877;48.238;11.160;2024-03-23T06:46:42;1.10;;;1.10;;
5704;SDS011;2877;48.238;11.160;2024-03-23T06:49:08;1.50;;;1.40;;
5704;SDS011;2877;48.238;11.160;2024-03-23T06:51:33;2.20;;;1.30;;
5704;SDS011;2877;48.238;11.160;2024-03-23T06:53:59;1.70;;;1.50;;
5704;SDS011;2877;48.238;11.160;2024-03-23T06:56:24;2.23;;;1.30;;
5704;SDS011;2877;48.238;11.160;2024-03-23T06:58:50;1.37;;;1.27;;
5704;SDS011;2877;48.238;11.160;2024-03-23T07:01:15;2.43;;;1.90;;
5704;SDS011;2877;48.238;11.160;2024-03-23T07:03:41;2.53;;;1.70;;
5704;SDS011;2877;48.238;11.160;2024-03-23T07:06:07;1.77;;;1.67;;
5704;SDS011;2877;48.238;11.160;2024-03-23T07:08:35;2.03;;;1.60;;
5704;SDS011;2877;48.238;11.160;2024-03-23T07:11:01;1.93;;;1.83;;
5704;SDS011;2877;48.238;11.160;2024-03-23T07:13:27;2.30;;;2.10;;
5704;SDS011;2877;48.238;11.160;2024-03-23T07:15:53;1.87;;;1.77;;
5704;SDS011;2877;48.238;11.160;2024-03-23T07:18:20;3.03;;;2.33;;
5704;SDS011;2877;48.238;11.160;2024-03-23T07:20:56;3.37;;;2.67;;
5704;SDS011;2877;48.238;11.160;2024-03-23T07:23:22;2.50;;;1.90;;
5704;SDS011;2877;48.238;11.160;2024-03-23T07:26:01;6.27;;;2.17;;
5704;SDS011;2877;48.238;11.160;2024-03-23T07:28:29;3.03;;;2.23;;
5704;SDS011;2877;48.238;11.160;2024-03-23T07:31:12;2.63;;;2.43;;
5704;SDS011;2877;48.238;11.160;2024-03-23T07:33:43;3.40;;;2.27;;
5704;SDS011;2877;48.238;11.160;2024-03-23T07:36:11;9.93;;;2.83;;
5704;SDS011;2877;48.238;11.160;2024-03-23T07:38:37;2.67;;;2.47;;
5704;SDS011;2877;48.238;11.160;2024-03-23T07:41:08;2.60;;;2.10;;
5704;SDS011;2877;48.238;11.160;2024-03-23T07:43:35;4.47;;;2.43;;
5704;SDS011;2877;48.238;11.160;2024-03-23T07:46:02;4.23;;;2.30;;
5704;SDS011;2877;48.238;11.160;2024-03-23T07:48:31;6.33;;;2.50;;
5704;SDS011;2877;48.238;11.160;2024-03-23T07:51:01;3.30;;;1.80;;
5704;SDS011;2877;48.238;11.160;2024-03-23T07:53:37;2.00;;;1.80;;
5704;SDS011;2877;48.238;11.160;2024-03-23T07:56:09;1.40;;;1.30;;
5704;SDS011;2877;48.238;11.160;2024-03-23T07:58:35;6.83;;;1.20;;
5704;SDS011;2877;48.238;11.160;2024-03-23T08:01:08;5.73;;;1.33;;
5704;SDS011;2877;48.238;11.160;2024-03-23T08:03:38;1.43;;;1.30;;
5704;SDS011;2877;48.238;11.160;2024-03-23T08:08:40;1.80;;;1.70;;
5704;SDS011;2877;48.238;11.160;2024-03-23T08:11:07;1.70;;;1.60;;
5704;SDS011;2877;48.238;11.160;2024-03-23T08:13:33;2.70;;;1.40;;
5704;SDS011;2877;48.238;11.160;2024-03-23T08:16:00;6.00;;;1.90;;
5704;SDS011;2877;48.238;11.160;2024-03-23T08:18:26;1.20;;;1.10;;
5704;SDS011;2877;48.238;11.160;2024-03-23T08:20:58;0.73;;;0.73;;
5704;SDS011;2877;48.238;11.160;2024-03-23T08:23:25;2.30;;;2.10;;
5704;SDS011;2877;48.238;11.160;2024-03-23T08:25:58;2.23;;;1.23;;
5704;SDS011;2877;48.238;11.160;2024-03-23T08:28:25;2.07;;;1.87;;
5704;SDS011;2877;48.238;11.160;2024-03-23T08:30:51;2.30;;;1.87;;
5704;SDS011;2877;48.238;11.160;2024-03-23T08:33:20;2.73;;;2.40;;
5704;SDS011;2877;48.238;11.160;2024-03-23T08:35:56;1.63;;;1.53;;
5704;SDS011;2877;48.238;11.160;2024-03-23T08:38:23;3.50;;;2.40;;
5704;SDS011;2877;48.238;11.160;2024-03-23T08:41:05;4.23;;;3.00;;
5704;SDS011;2877;48.238;11.160;2024-03-23T08:43:39;2.10;;;1.90;;
5704;SDS011;2877;48.238;11.160;2024-03-23T08:46:09;2.67;;;2.40;;
5704;SDS011;2877;48.238;11.160;2024-03-23T08:48:40;6.00;;;2.70;;
5704;SDS011;2877;48.238;11.160;2024-03-23T08:51:09;2.20;;;1.93;;
5704;SDS011;2877;48.238;11.160;2024-03-23T08:53:35;3.30;;;3.00;;
5704;SDS011;2877;48.238;11.160;2024-03-23T08:56:01;2.90;;;2.60;;
5704;SDS011;2877;48.238;11.160;2024-03-23T08:58:28;2.80;;;2.20;;
5704;SDS011;2877;48.238;11.160;2024-03-23T09:00:55;6.50;;;3.40;;
5704;SDS011;2877;48.238;11.160;2024-03-23T09:03:22;6.90;;;2.40;;
5704;SDS011;2877;48.238;11.160;2024-03-23T09:05:48;3.87;;;2.53;;
5704;SDS011;2877;48.238;11.160;2024-03-23T09:08:14;3.07;;;2.80;;
5704;SDS011;2877;48.238;11.160;2024-03-23T09:10:39;2.40;;;2.20;;
5704;SDS011;2877;48.238;11.160;2024-03-23T09:13:05;1.73;;;1.57;;
5704;SDS011;2877;48.238;11.160;2024-03-23T09:15:35;2.60;;;2.40;;
5704;SDS011;2877;48.238;11.160;2024-03-23T09:18:02;4.20;;;2.93;;
5704;SDS011;2877;48.238;11.160;2024-03-23T09:20:28;3.30;;;2.87;;
5704;SDS011;2877;48.238;11.160;2024-03-23T09:22:54;3.77;;;2.50;;
5704;SDS011;2877;48.238;11.160;2024-03-23T09:25:19;3.53;;;2.33;;
5704;SDS011;2877;48.238;11.160;2024-03-23T09:27:48;1.93;;;1.50;;
5704;SDS011;2877;48.238;11.160;2024-03-23T09:30:14;1.97;;;1.70;;
5704;SDS011;2877;48.238;11.160;2024-03-23T09:32:42;1.87;;;1.50;;
5704;SDS011;2877;48.238;11.160;2024-03-23T09:35:08;1.57;;;1.27;;
5704;SDS011;2877;48.238;11.160;2024-03-23T09:37:34;2.03;;;1.40;;
5704;SDS011;2877;48.238;11.160;2024-03-23T09:39:59;3.77;;;2.00;;
5704;SDS011;2877;48.238;11.160;2024-03-23T09:42:25;1.23;;;1.17;;
5704;SDS011;2877;48.238;11.160;2024-03-23T09:44:50;1.53;;;1.43;;
5704;SDS011;2877;48.238;11.160;2024-03-23T09:47:17;1.90;;;1.40;;
5704;SDS011;2877;48.238;11.160;2024-03-23T09:49:42;1.97;;;1.40;;
5704;SDS011;2877;48.238;11.160;2024-03-23T09:52:08;1.40;;;1.27;;
5704;SDS011;2877;48.238;11.160;2024-03-23T09:54:34;0.90;;;0.90;;
5704;SDS011;2877;48.238;11.160;2024-03-23T09:57:00;1.60;;;1.50;;
5704;SDS011;2877;48.238;11.160;2024-03-23T09:59:25;1.70;;;0.93;;
5704;SDS011;2877;48.238;11.160;2024-03-23T10:01:52;2.10;;;0.67;;
5704;SDS011;2877;48.238;11.160;2024-03-23T10:09:44;0.67;;;0.67;;
5704;SDS011;2877;48.238;11.160;2024-03-23T10:12:11;1.53;;;1.20;;
5704;SDS011;2877;48.238;11.160;2024-03-23T10:14:39;0.80;;;0.80;;
5704;SDS011;2877;48.238;11.160;2024-03-23T10:17:14;2.13;;;0.90;;
5704;SDS011;2877;48.238;11.160;2024-03-23T10:19:47;0.90;;;0.90;;
5704;SDS011;2877;48.238;11.160;2024-03-23T10:22:18;0.40;;;0.40;;
5704;SDS011;2877;48.238;11.160;2024-03-23T10:24:45;0.40;;;0.40;;
5704;SDS011;2877;48.238;11.160;2024-03-23T10:27:17;1.17;;;0.40;;
5704;SDS011;2877;48.238;11.160;2024-03-23T10:29:45;3.60;;;0.67;;
5704;SDS011;2877;48.238;11.160;2024-03-23T10:32:11;0.73;;;0.70;;
5704;SDS011;2877;48.238;11.160;2024-03-23T10:34:38;0.60;;;0.60;;
5704;SDS011;2877;48.238;11.160;2024-03-23T10:37:04;1.07;;;0.60;;
5704;SDS011;2877;48.238;11.160;2024-03-23T10:39:35;0.43;;;0.43;;
5704;SDS011;2877;48.238;11.160;2024-03-23T10:42:08;0.53;;;0.53;;
5704;SDS011;2877;48.238;11.160;2024-03-23T10:44:37;0.50;;;0.50;;
5704;SDS011;2877;48.238;11.160;2024-03-23T10:47:03;0.77;;;0.50;;
5704;SDS011;2877;48.238;11.160;2024-03-23T10:49:33;0.43;;;0.43;;
5704;SDS011;2877;48.238;11.160;2024-03-23T10:52:00;0.50;;;0.50;;
5704;SDS011;2877;48.238;11.160;2024-03-23T10:54:26;3.23;;;0.70;;
5704;SDS011;2877;48.238;11.160;2024-03-23T10:57:15;0.80;;;0.53;;
5704;SDS011;2877;48.238;11.160;2024-03-23T10:59:41;0.90;;;0.57;;
5704;SDS011;2877;48.238;11.160;2024-03-23T11:02:17;0.90;;;0.60;;
5704;SDS011;2877;48.238;11.160;2024-03-23T11:04:44;0.97;;;0.50;;
5704;SDS011;2877;48.238;11.160;2024-03-23T11:09:53;0.80;;;0.70;;
5704;SDS011;2877;48.238;11.160;2024-03-23T11:14:51;0.70;;;0.70;;
5704;SDS011;2877;48.238;11.160;2024-03-23T11:17:30;0.60;;;0.60;;
5704;SDS011;2877;48.238;11.160;2024-03-23T11:19:57;0.97;;;0.97;;
5704;SDS011;2877;48.238;11.160;2024-03-23T11:22:42;1.03;;;0.93;;
5704;SDS011;2877;48.238;11.160;2024-03-23T11:25:21;1.17;;;0.70;;
5704;SDS011;2877;48.238;11.160;2024-03-23T11:27:51;0.80;;;0.73;;
5704;SDS011;2877;48.238;11.160;2024-03-23T11:30:18;0.60;;;0.60;;
5704;SDS011;2877;48.238;11.160;2024-03-23T11:32:49;0.57;;;0.57;;
5704;SDS011;2877;48.238;11.160;2024-03-23T11:35:31;0.70;;;0.70;;
5704;SDS011;2877;48.238;11.160;2024-03-23T11:38:01;1.37;;;1.10;;
5704;SDS011;2877;48.238;11.160;2024-03-23T11:40:44;1.40;;;1.10;;
5704;SDS011;2877;48.238;11.160;2024-03-23T11:43:14;0.70;;;0.70;;
5704;SDS011;2877;48.238;11.160;2024-03-23T11:45:44;0.90;;;0.87;;
5704;SDS011;2877;48.238;11.160;2024-03-23T11:48:12;1.97;;;1.37;;
5704;SDS011;2877;48.238;11.160;2024-03-23T11:50:39;1.63;;;1.10;;
5704;SDS011;2877;48.238;11.160;2024-03-23T11:53:22;0.90;;;0.90;;
5704;SDS011;2877;48.238;11.160;2024-03-23T11:55:51;3.20;;;0.80;;
5704;SDS011;2877;48.238;11.160;2024-03-23T11:58:19;0.60;;;0.60;;
5704;SDS011;2877;48.238;11.160;2024-03-23T12:00:56;3.83;;;1.17;;
5704;SDS011;2877;48.238;11.160;2024-03-23T12:03:27;5.70;;;1.00;;
5704;SDS011;2877;48.238;11.160;2024-03-23T12:06:00;2.10;;;1.00;;
5704;SDS011;2877;48.238;11.160;2024-03-23T12:11:06;7.60;;;1.43;;
5704;SDS011;2877;48.238;11.160;2024-03-23T12:13:32;1.43;;;1.03;;
5704;SDS011;2877;48.238;11.160;2024-03-23T12:16:19;1.30;;;1.17;;
5704;SDS011;2877;48.238;11.160;2024-03-23T12:18:48;1.20;;;1.10;;
5704;SDS011;2877;48.238;11.160;2024-03-23T12:21:16;1.00;;;0.87;;
5704;SDS011;2877;48.238;11.160;2024-03-23T12:23:42;3.43;;;1.60;;
5704;SDS011;2877;48.238;11.160;2024-03-23T12:26:09;1.30;;;1.20;;
5704;SDS011;2877;48.238;11.160;2024-03-23T12:28:35;2.00;;;1.13;;
5704;SDS011;2877;48.238;11.160;2024-03-23T12:31:02;1.30;;;1.20;;
5704;SDS011;2877;48.238;11.160;2024-03-23T12:33:28;3.67;;;1.50;;
5704;SDS011;2877;48.238;11.160;2024-03-23T12:35:53;1.97;;;1.47;;
5704;SDS011;2877;48.238;11.160;2024-03-23T12:38:19;2.43;;;1.90;;
5704;SDS011;2877;48.238;11.160;2024-03-23T12:40:51;3.43;;;2.10;;
5704;SDS011;2877;48.238;11.160;2024-03-23T12:43:17;2.90;;;1.40;;
5704;SDS011;2877;48.238;11.160;2024-03-23T12:45:46;1.50;;;1.40;;
5704;SDS011;2877;48.238;11.160;2024-03-23T12:48:12;2.43;;;1.40;;
5704;SDS011;2877;48.238;11.160;2024-03-23T12:50:37;1.23;;;0.87;;
5704;SDS011;2877;48.238;11.160;2024-03-23T12:53:03;4.60;;;1.53;;
5704;SDS011;2877;48.238;11.160;2024-03-23T12:55:29;1.67;;;1.10;;
5704;SDS011;2877;48.238;11.160;2024-03-23T12:57:54;0.90;;;0.90;;
5704;SDS011;2877;48.238;11.160;2024-03-23T13:00:20;2.87;;;1.50;;
5704;SDS011;2877;48.238;11.160;2024-03-23T13:02:45;1.53;;;1.37;;
5704;SDS011;2877;48.238;11.160;2024-03-23T13:05:11;1.93;;;1.63;;
5704;SDS011;2877;48.238;11.160;2024-03-23T13:07:36;2.03;;;1.30;;
5704;SDS011;2877;48.238;11.160;2024-03-23T13:10:03;6.07;;;2.07;;
5704;SDS011;2877;48.238;11.160;2024-03-23T13:12:29;1.47;;;1.37;;
5704;SDS011;2877;48.238;11.160;2024-03-23T13:14:56;0.97;;;0.90;;
5704;SDS011;2877;48.238;11.160;2024-03-23T13:17:21;10.03;;;1.73;;
5704;SDS011;2877;48.238;11.160;2024-03-23T13:19:47;1.77;;;1.30;;
5704;SDS011;2877;48.238;11.160;2024-03-23T13:22:12;4.77;;;1.57;;
5704;SDS011;2877;48.238;11.160;2024-03-23T13:24:38;4.33;;;1.57;;
5704;SDS011;2877;48.238;11.160;2024-03-23T13:27:04;1.00;;;0.93;;
5704;SDS011;2877;48.238;11.160;2024-03-23T13:29:32;2.40;;;1.70;;
5704;SDS011;2877;48.238;11.160;2024-03-23T13:31:59;2.10;;;1.30;;
5704;SDS011;2877;48.238;11.160;2024-03-23T13:34:25;1.10;;;1.10;;
5704;SDS011;2877;48.238;11.160;2024-03-23T13:36:50;1.40;;;1.30;;
5704;SDS011;2877;48.238;11.160;2024-03-23T13:39:16;2.00;;;1.10;;
5704;SDS011;2877;48.238;11.160;2024-03-23T13:41:45;1.13;;;1.03;;
5704;SDS011;2877;48.238;11.160;2024-03-23T13:44:11;2.43;;;1.80;;
5704;SDS011;2877;48.238;11.160;2024-03-23T13:46:38;5.80;;;1.30;;
5704;SDS011;2877;48.238;11.160;2024-03-23T13:49:05;1.90;;;1.10;;
5704;SDS011;2877;48.238;11.160;2024-03-23T13:51:31;1.67;;;1.43;;
5704;SDS011;2877;48.238;11.160;2024-03-23T13:53:57;3.23;;;1.20;;
5704;SDS011;2877;48.238;11.160;2024-03-23T13:56:25;1.13;;;0.80;;
5704;SDS011;2877;48.238;11.160;2024-03-23T13:58:57;3.37;;;1.17;;
5704;SDS011;2877;48.238;11.160;2024-03-23T14:01:23;1.37;;;1.27;;
5704;SDS011;2877;48.238;11.160;2024-03-23T14:03:49;3.70;;;1.03;;
5704;SDS011;2877;48.238;11.160;2024-03-23T14:06:15;1.30;;;0.63;;
5704;SDS011;2877;48.238;11.160;2024-03-23T14:08:40;1.07;;;0.97;;
5704;SDS011;2877;48.238;11.160;2024-03-23T14:11:07;1.23;;;0.90;;
5704;SDS011;2877;48.238;11.160;2024-03-23T14:13:33;3.00;;;0.97;;
5704;SDS011;2877;48.238;11.160;2024-03-23T14:16:00;2.47;;;1.20;;
5704;SDS011;2877;48.238;11.160;2024-03-23T14:18:25;3.00;;;0.57;;
5704;SDS011;2877;48.238;11.160;2024-03-23T14:20:51;1.30;;;0.70;;
5704;SDS011;2877;48.238;11.160;2024-03-23T14:23:18;2.73;;;0.60;;
5704;SDS011;2877;48.238;11.160;2024-03-23T14:25:44;4.43;;;1.03;;
5704;SDS011;2877;48.238;11.160;2024-03-23T14:28:10;1.60;;;0.67;;
5704;SDS011;2877;48.238;11.160;2024-03-23T14:30:40;3.50;;;1.30;;
5704;SDS011;2877;48.238;11.160;2024-03-23T14:33:08;1.57;;;1.03;;
5704;SDS011;2877;48.238;11.160;2024-03-23T14:35:34;3.90;;;1.00;;
5704;SDS011;2877;48.238;11.160;2024-03-23T14:38:00;1.90;;;0.90;;
5704;SDS011;2877;48.238;11.160;2024-03-23T14:40:25;2.20;;;0.97;;
5704;SDS011;2877;48.238;11.160;2024-03-23T14:42:54;1.33;;;0.90;;
5704;SDS011;2877;48.238;11.160;2024-03-23T14:45:23;2.83;;;0.63;;
5704;SDS011;2877;48.238;11.160;2024-03-23T14:47:49;4.07;;;1.20;;
5704;SDS011;2877;48.238;11.160;2024-03-23T14:50:15;2.10;;;1.37;;
5704;SDS011;2877;48.238;11.160;2024-03-23T14:52:44;0.83;;;0.70;;
5704;SDS011;2877;48.238;11.160;2024-03-23T14:55:11;1.03;;;0.70;;
5704;SDS011;2877;48.238;11.160;2024-03-23T14:57:37;1.90;;;1.70;;
5704;SDS011;2877;48.238;11.160;2024-03-23T15:00:06;1.67;;;1.37;;
5704;SDS011;2877;48.238;11.160;2024-03-23T15:02:33;6.70;;;1.43;;
5704;SDS011;2877;48.238;11.160;2024-03-23T15:04:59;1.50;;;0.90;;
5704;SDS011;2877;48.238;11.160;2024-03-23T15:07:25;0.97;;;0.90;;
5704;SDS011;2877;48.238;11.160;2024-03-23T15:09:50;7.57;;;1.90;;
5704;SDS011;2877;48.238;11.160;2024-03-23T15:12:16;7.50;;;3.00;;
5704;SDS011;2877;48.238;11.160;2024-03-23T15:14:41;2.20;;;1.57;;
5704;SDS011;2877;48.238;11.160;2024-03-23T15:17:07;7.43;;;2.70;;
5704;SDS011;2877;48.238;11.160;2024-03-23T15:19:34;4.50;;;2.20;;
5704;SDS011;2877;48.238;11.160;2024-03-23T15:21:59;2.40;;;1.33;;
5704;SDS011;2877;48.238;11.160;2024-03-23T15:24:25;1.20;;;1.10;;
5704;SDS011;2877;48.238;11.160;2024-03-23T15:26:51;4.97;;;1.40;;
5704;SDS011;2877;48.238;11.160;2024-03-23T15:29:17;1.20;;;1.10;;
5704;SDS011;2877;48.238;11.160;2024-03-23T15:31:43;1.70;;;1.33;;
5704;SDS011;2877;48.238;11.160;2024-03-23T15:34:10;2.30;;;1.10;;
5704;SDS011;2877;48.238;11.160;2024-03-23T15:36:36;1.57;;;1.03;;
5704;SDS011;2877;48.238;11.160;2024-03-23T15:39:03;1.57;;;1.00;;
5704;SDS011;2877;48.238;11.160;2024-03-23T15:41:29;1.33;;;1.00;;
5704;SDS011;2877;48.238;11.160;2024-03-23T15:43:56;3.50;;;1.30;;
5704;SDS011;2877;48.238;11.160;2024-03-23T15:46:21;0.73;;;0.73;;
5704;SDS011;2877;48.238;11.160;2024-03-23T15:48:47;0.90;;;0.90;;
5704;SDS011;2877;48.238;11.160;2024-03-23T15:51:13;7.97;;;1.93;;
5704;SDS011;2877;48.238;11.160;2024-03-23T15:53:39;2.70;;;1.00;;
5704;SDS011;2877;48.238;11.160;2024-03-23T15:56:04;0.50;;;0.50;;
5704;SDS011;2877;48.238;11.160;2024-03-23T15:58:31;0.93;;;0.60;;
5704;SDS011;2877;48.238;11.160;2024-03-23T16:03:24;1.03;;;0.70;;
5704;SDS011;2877;48.238;11.160;2024-03-23T16:05:58;1.40;;;1.00;;
5704;SDS011;2877;48.238;11.160;2024-03-23T16:08:25;0.60;;;0.60;;
5704;SDS011;2877;48.238;11.160;2024-03-23T16:10:51;2.20;;;1.23;;
5704;SDS011;2877;48.238;11.160;2024-03-23T16:13:17;1.27;;;1.03;;